sensor_id;sensor_type;location;lat;lon;timestamp;pressure;altitude;pressure_sealevel;temperature;humidity
3796;BME280;1913;50.660;7.834;2023-06-24T00:00:44;151236.00;;;12.93;100.00
3796;BME280;1913;50.660;7.834;2023-06-24T00:03:10;151231.00;;;12.91;100.00
3796;BME280;1913;50.660;7.834;2023-06-24T00:05:42;151219.63;;;12.87;100.00
3796;BME280;1913;50.660;7.834;2023-06-24T00:08:08;151233.50;;;12.92;100.00
3796;BME280;1913;50.660;7.834;2023-06-24T00:10:33;151212.06;;;12.84;100.00
3796;BME280;1913;50.660;7.834;2023-06-24T00:12:59;151217.13;;;12.86;100.00
3796;BME280;1913;50.660;7.834;2023-06-24T00:15:27;151214.63;;;12.85;100.00
3796;BME280;1913;50.660;7.834;2023-06-24T00:17:52;151200.75;;;12.79;100.00
3796;BME280;1913;50.660;7.834;2023-06-24T00:20:18;151208.31;;;12.82;100.00
3796;BME280;1913;50.660;7.834;2023-06-24T00:22:45;151200.75;;;12.79;100.00
3796;BME280;1913;50.660;7.834;2023-06-24T00:25:14;151193.19;;;12.76;100.00
3796;BME280;1913;50.660;7.834;2023-06-24T00:27:41;151200.75;;;12.79;100.00
3796;BME280;1913;50.660;7.834;2023-06-24T00:30:07;151178.13;;;12.70;100.00
3796;BME280;1913;50.660;7.834;2023-06-24T00:32:33;151168.03;;;12.66;100.00
3796;BME280;1913;50.660;7.834;2023-06-24T00:34:58;151165.53;;;12.65;100.00
3796;BME280;1913;50.660;7.834;2023-06-24T00:37:25;151160.53;;;12.63;100.00
3796;BME280;1913;50.660;7.834;2023-06-24T00:39:50;151156.72;;;12.61;100.00
3796;BME280;1913;50.660;7.834;2023-06-24T00:42:17;151163.03;;;12.64;100.00
3796;BME280;1913;50.660;7.834;2023-06-24T00:44:42;151169.31;;;12.66;100.00
3796;BME280;1913;50.660;7.834;2023-06-24T00:47:08;151149.16;;;12.58;100.00
3796;BME280;1913;50.660;7.834;2023-06-24T00:49:34;151152.97;;;12.60;100.00
3796;BME280;1913;50.660;7.834;2023-06-24T00:51:59;151142.91;;;12.56;100.00
3796;BME280;1913;50.660;7.834;2023-06-24T00:54:26;151149.16;;;12.58;100.00
3796;BME280;1913;50.660;7.834;2023-06-24T00:56:57;151163.03;;;12.64;100.00
3796;BME280;1913;50.660;7.834;2023-06-24T00:59:26;151185.66;;;12.73;100.00
3796;BME280;1913;50.660;7.834;2023-06-24T01:01:55;151180.63;;;12.71;100.00
3796;BME280;1913;50.660;7.834;2023-06-24T01:04:20;151178.13;;;12.70;100.00
3796;BME280;1913;50.660;7.834;2023-06-24T01:06:46;151168.03;;;12.66;100.00
3796;BME280;1913;50.660;7.834;2023-06-24T01:09:12;151140.34;;;12.55;100.00
3796;BME280;1913;50.660;7.834;2023-06-24T01:11:38;151130.28;;;12.51;100.00
3796;BME280;1913;50.660;7.834;2023-06-24T01:14:04;151151.72;;;12.59;100.00
3796;BME280;1913;50.660;7.834;2023-06-24T01:28:20;151130.28;;;12.51;100.00
3796;BME280;1913;50.660;7.834;2023-06-24T01:33:34;151111.44;;;12.43;100.00
3796;BME280;1913;50.660;7.834;2023-06-24T01:36:02;151095.06;;;12.36;100.00
3796;BME280;1913;50.660;7.834;2023-06-24T01:38:36;151069.91;;;12.26;100.00
3796;BME280;1913;50.660;7.834;2023-06-24T01:41:06;151079.97;;;12.30;100.00
3796;BME280;1913;50.660;7.834;2023-06-24T01:43:33;151077.47;;;12.29;100.00
3796;BME280;1913;50.660;7.834;2023-06-24T01:46:00;151062.34;;;12.23;100.00
3796;BME280;1913;50.660;7.834;2023-06-24T01:48:28;151082.50;;;12.31;100.00
3796;BME280;1913;50.660;7.834;2023-06-24T01:51:00;151062.34;;;12.23;100.00
3796;BME280;1913;50.660;7.834;2023-06-24T01:53:33;151076.19;;;12.29;100.00
3796;BME280;1913;50.660;7.834;2023-06-24T01:56:00;151051.03;;;12.18;100.00
3796;BME280;1913;50.660;7.834;2023-06-24T01:58:27;151059.84;;;12.22;100.00
3796;BME280;1913;50.660;7.834;2023-06-24T02:00:55;151076.19;;;12.29;100.00
3796;BME280;1913;50.660;7.834;2023-06-24T02:03:22;151073.69;;;12.28;100.00
3796;BME280;1913;50.660;7.834;2023-06-24T02:05:49;151079.97;;;12.30;100.00
3796;BME280;1913;50.660;7.834;2023-06-24T02:08:16;151093.81;;;12.36;100.00
3796;BME280;1913;50.660;7.834;2023-06-24T02:10:43;151091.31;;;12.35;100.00
3796;BME280;1913;50.660;7.834;2023-06-24T02:13:09;151077.47;;;12.29;100.00
3796;BME280;1913;50.660;7.834;2023-06-24T02:15:38;151074.97;;;12.28;100.00
3796;BME280;1913;50.660;7.834;2023-06-24T02:18:05;151071.16;;;12.27;100.00
3796;BME280;1913;50.660;7.834;2023-06-24T02:20:31;151062.34;;;12.23;100.00
3796;BME280;1913;50.660;7.834;2023-06-24T02:22:58;151074.97;;;12.28;100.00
3796;BME280;1913;50.660;7.834;2023-06-24T02:25:25;151053.53;;;12.19;100.00
3796;BME280;1913;50.660;7.834;2023-06-24T02:27:52;151064.91;;;12.24;100.00
3796;BME280;1913;50.660;7.834;2023-06-24T02:30:20;151058.59;;;12.21;100.00
3796;BME280;1913;50.660;7.834;2023-06-24T02:32:45;151047.28;;;12.17;100.00
3796;BME280;1913;50.660;7.834;2023-06-24T02:35:11;151037.19;;;12.13;100.00
3796;BME280;1913;50.660;7.834;2023-06-24T02:37:37;151064.91;;;12.24;100.00
3796;BME280;1913;50.660;7.834;2023-06-24T02:40:03;151062.34;;;12.23;100.00
3796;BME280;1913;50.660;7.834;2023-06-24T02:42:30;151085.00;;;12.32;100.00
3796;BME280;1913;50.660;7.834;2023-06-24T02:44:56;151082.50;;;12.31;100.00
3796;BME280;1913;50.660;7.834;2023-06-24T02:47:22;151079.97;;;12.30;100.00
3796;BME280;1913;50.660;7.834;2023-06-24T02:49:49;151074.97;;;12.28;100.00
3796;BME280;1913;50.660;7.834;2023-06-24T02:52:16;151046.00;;;12.16;100.00
3796;BME280;1913;50.660;7.834;2023-06-24T02:54:42;151071.16;;;12.27;100.00
3796;BME280;1913;50.660;7.834;2023-06-24T02:57:09;151053.53;;;12.19;100.00
3796;BME280;1913;50.660;7.834;2023-06-24T02:59:35;151046.00;;;12.16;100.00
3796;BME280;1913;50.660;7.834;2023-06-24T03:02:01;151040.97;;;12.14;100.00
3796;BME280;1913;50.660;7.834;2023-06-24T03:04:28;151024.63;;;12.08;100.00
3796;BME280;1913;50.660;7.834;2023-06-24T03:06:54;151046.00;;;12.16;100.00
3796;BME280;1913;50.660;7.834;2023-06-24T03:09:20;151044.75;;;12.16;100.00
3796;BME280;1913;50.660;7.834;2023-06-24T03:11:45;151039.72;;;12.14;100.00
3796;BME280;1913;50.660;7.834;2023-06-24T03:14:11;151040.97;;;12.14;100.00
3796;BME280;1913;50.660;7.834;2023-06-24T03:16:37;151022.13;;;12.07;100.00
3796;BME280;1913;50.660;7.834;2023-06-24T03:19:06;151030.94;;;12.10;100.00
3796;BME280;1913;50.660;7.834;2023-06-24T03:21:31;151022.13;;;12.07;100.00
3796;BME280;1913;50.660;7.834;2023-06-24T03:23:57;151027.13;;;12.09;100.00
3796;BME280;1913;50.660;7.834;2023-06-24T03:26:34;151024.63;;;12.08;100.00
3796;BME280;1913;50.660;7.834;2023-06-24T03:29:00;151028.38;;;12.09;100.00
3796;BME280;1913;50.660;7.834;2023-06-24T03:31:26;151017.06;;;12.05;100.00
3796;BME280;1913;50.660;7.834;2023-06-24T03:33:51;151028.38;;;12.09;100.00
3796;BME280;1913;50.660;7.834;2023-06-24T03:36:17;151046.00;;;12.16;100.00
3796;BME280;1913;50.660;7.834;2023-06-24T03:38:42;151048.53;;;12.17;100.00
3796;BME280;1913;50.660;7.834;2023-06-24T03:41:07;151066.16;;;12.25;100.00
3796;BME280;1913;50.660;7.834;2023-06-24T03:43:33;151052.28;;;12.19;100.00
3796;BME280;1913;50.660;7.834;2023-06-24T03:45:58;151068.66;;;12.26;100.00
3796;BME280;1913;50.660;7.834;2023-06-24T03:48:25;151098.81;;;12.38;100.00
3796;BME280;1913;50.660;7.834;2023-06-24T03:50:51;151110.19;;;12.42;100.00
3796;BME280;1913;50.660;7.834;2023-06-24T03:53:16;151108.94;;;12.42;100.00
3796;BME280;1913;50.660;7.834;2023-06-24T03:55:42;151136.59;;;12.53;100.00
3796;BME280;1913;50.660;7.834;2023-06-24T03:58:07;151151.72;;;12.59;100.00
3796;BME280;1913;50.660;7.834;2023-06-24T04:00:33;151160.53;;;12.63;100.00
3796;BME280;1913;50.660;7.834;2023-06-24T04:02:59;151184.41;;;12.73;100.00
3796;BME280;1913;50.660;7.834;2023-06-24T04:05:26;151179.38;;;12.70;100.00
3796;BME280;1913;50.660;7.834;2023-06-24T04:07:51;151199.50;;;12.79;100.00
3796;BME280;1913;50.660;7.834;2023-06-24T04:10:17;151218.38;;;12.86;100.00
3796;BME280;1913;50.660;7.834;2023-06-24T04:12:44;151236.00;;;12.93;100.00
3796;BME280;1913;50.660;7.834;2023-06-24T04:15:10;151251.13;;;13.00;100.00
3796;BME280;1913;50.660;7.834;2023-06-24T04:17:35;151258.66;;;13.03;100.00
3796;BME280;1913;50.660;7.834;2023-06-24T04:20:01;151286.34;;;13.14;100.00
3796;BME280;1913;50.660;7.834;2023-06-24T04:22:29;151314.09;;;13.25;100.00
3796;BME280;1913;50.660;7.834;2023-06-24T04:24:55;151345.56;;;13.38;100.00
3796;BME280;1913;50.660;7.834;2023-06-24T04:27:20;151377.03;;;13.51;100.00
3796;BME280;1913;50.660;7.834;2023-06-24T04:29:46;151457.59;;;13.83;100.00
3796;BME280;1913;50.660;7.834;2023-06-24T04:32:11;151570.97;;;14.29;100.00
3796;BME280;1913;50.660;7.834;2023-06-24T04:34:37;151686.94;;;14.76;100.00
3796;BME280;1913;50.660;7.834;2023-06-24T04:37:03;151778.94;;;15.14;100.00
3796;BME280;1913;50.660;7.834;2023-06-24T04:39:28;151891.13;;;15.59;100.00
3796;BME280;1913;50.660;7.834;2023-06-24T04:41:54;151988.25;;;15.98;100.00
3796;BME280;1913;50.660;7.834;2023-06-24T04:44:19;152108.03;;;16.47;100.00
3796;BME280;1913;50.660;7.834;2023-06-24T04:46:45;152269.63;;;17.12;100.00
3796;BME280;1913;50.660;7.834;2023-06-24T04:49:11;152413.47;;;17.70;100.00
3796;BME280;1913;50.660;7.834;2023-06-24T04:51:36;152565.03;;;18.32;100.00
3796;BME280;1913;50.660;7.834;2023-06-24T04:54:02;152666.16;;;18.73;100.00
3796;BME280;1913;50.660;7.834;2023-06-24T04:56:28;152800.06;;;19.27;100.00
3796;BME280;1913;50.660;7.834;2023-06-24T04:58:54;152886.00;;;19.61;100.00
3796;BME280;1913;50.660;7.834;2023-06-24T05:01:19;153037.72;;;20.23;100.00
3796;BME280;1913;50.660;7.834;2023-06-24T05:03:45;153100.94;;;20.48;100.00
3796;BME280;1913;50.660;7.834;2023-06-24T05:06:10;153230.00;;;21.00;100.00
3796;BME280;1913;50.660;7.834;2023-06-24T05:08:35;153295.75;;;21.27;100.00
3796;BME280;1913;50.660;7.834;2023-06-24T05:11:01;153276.78;;;21.19;100.00
3796;BME280;1913;50.660;7.834;2023-06-24T05:13:27;153314.81;;;21.35;100.00
3796;BME280;1913;50.660;7.834;2023-06-24T05:15:53;153412.22;;;21.74;100.00
3796;BME280;1913;50.660;7.834;2023-06-24T05:18:18;153548.94;;;22.29;100.00
3796;BME280;1913;50.660;7.834;2023-06-24T05:20:43;153646.41;;;22.68;100.00
3796;BME280;1913;50.660;7.834;2023-06-24T05:23:09;153724.97;;;23.00;100.00
3796;BME280;1913;50.660;7.834;2023-06-24T05:25:34;153828.84;;;23.42;100.00
3796;BME280;1913;50.660;7.834;2023-06-24T05:28:00;153923.91;;;23.80;100.00
3796;BME280;1913;50.660;7.834;2023-06-24T05:30:26;154049.31;;;24.31;100.00
3796;BME280;1913;50.660;7.834;2023-06-24T05:32:51;154135.56;;;24.66;98.17
3796;BME280;1913;50.660;7.834;2023-06-24T05:35:17;154239.47;;;25.07;97.56
3796;BME280;1913;50.660;7.834;2023-06-24T05:37:42;154339.69;;;25.48;88.67
3796;BME280;1913;50.660;7.834;2023-06-24T05:40:08;154367.59;;;25.59;89.20
3796;BME280;1913;50.660;7.834;2023-06-24T05:42:35;154366.31;;;25.59;87.36
3796;BME280;1913;50.660;7.834;2023-06-24T05:45:00;154509.69;;;26.16;81.92
3796;BME280;1913;50.660;7.834;2023-06-24T05:47:25;154377.72;;;25.63;86.21
3796;BME280;1913;50.660;7.834;2023-06-24T05:49:51;154329.56;;;25.44;77.11
3796;BME280;1913;50.660;7.834;2023-06-24T05:52:16;154438.66;;;25.88;71.69
3796;BME280;1913;50.660;7.834;2023-06-24T05:54:42;154419.63;;;25.80;72.19
3796;BME280;1913;50.660;7.834;2023-06-24T05:57:07;154504.56;;;26.14;64.87
3796;BME280;1913;50.660;7.834;2023-06-24T05:59:34;154392.97;;;25.69;59.17
3796;BME280;1913;50.660;7.834;2023-06-24T06:02:00;154335.88;;;25.46;62.45
3796;BME280;1913;50.660;7.834;2023-06-24T06:04:27;154300.38;;;25.32;58.35
3796;BME280;1913;50.660;7.834;2023-06-24T06:06:53;154234.41;;;25.05;59.50
3796;BME280;1913;50.660;7.834;2023-06-24T06:09:20;154203.97;;;24.93;60.87
3796;BME280;1913;50.660;7.834;2023-06-24T06:11:46;154111.47;;;24.56;62.52
3796;BME280;1913;50.660;7.834;2023-06-24T06:14:11;154093.72;;;24.49;63.90
3796;BME280;1913;50.660;7.834;2023-06-24T06:16:37;154089.88;;;24.47;60.89
3796;BME280;1913;50.660;7.834;2023-06-24T06:19:02;154075.97;;;24.42;61.40
3796;BME280;1913;50.660;7.834;2023-06-24T06:21:28;154094.97;;;24.49;62.53
3796;BME280;1913;50.660;7.834;2023-06-24T06:23:53;154225.53;;;25.02;56.95
3796;BME280;1913;50.660;7.834;2023-06-24T06:26:19;154216.66;;;24.98;58.82
3796;BME280;1913;50.660;7.834;2023-06-24T06:28:44;154174.81;;;24.81;54.86
3796;BME280;1913;50.660;7.834;2023-06-24T06:31:10;154229.31;;;25.03;55.47
3796;BME280;1913;50.660;7.834;2023-06-24T06:33:35;154216.66;;;24.98;57.02
3796;BME280;1913;50.660;7.834;2023-06-24T06:36:00;154271.22;;;25.20;53.37
3796;BME280;1913;50.660;7.834;2023-06-24T06:38:26;154338.44;;;25.47;55.41
3796;BME280;1913;50.660;7.834;2023-06-24T06:40:52;154339.69;;;25.48;51.11
3796;BME280;1913;50.660;7.834;2023-06-24T06:43:17;154344.75;;;25.50;50.79
3796;BME280;1913;50.660;7.834;2023-06-24T06:45:43;154400.56;;;25.72;49.90
3796;BME280;1913;50.660;7.834;2023-06-24T06:48:09;154385.34;;;25.66;49.40
3796;BME280;1913;50.660;7.834;2023-06-24T06:50:35;154231.84;;;25.04;52.02
3796;BME280;1913;50.660;7.834;2023-06-24T06:53:00;154359.97;;;25.56;50.27
3796;BME280;1913;50.660;7.834;2023-06-24T06:55:26;154382.81;;;25.65;52.19
3796;BME280;1913;50.660;7.834;2023-06-24T06:57:52;154394.22;;;25.70;52.16
3796;BME280;1913;50.660;7.834;2023-06-24T07:00:18;154504.56;;;26.14;48.67
3796;BME280;1913;50.660;7.834;2023-06-24T07:02:43;154500.81;;;26.13;49.04
3796;BME280;1913;50.660;7.834;2023-06-24T07:05:09;154589.63;;;26.48;48.82
3796;BME280;1913;50.660;7.834;2023-06-24T07:07:37;154682.22;;;26.86;50.20
3796;BME280;1913;50.660;7.834;2023-06-24T07:10:04;154645.44;;;26.71;49.68
3796;BME280;1913;50.660;7.834;2023-06-24T07:12:29;154611.19;;;26.57;49.27
3796;BME280;1913;50.660;7.834;2023-06-24T07:14:56;154649.28;;;26.72;48.83
3796;BME280;1913;50.660;7.834;2023-06-24T07:17:21;154398.00;;;25.71;48.46
3796;BME280;1913;50.660;7.834;2023-06-24T07:19:47;154423.41;;;25.82;51.16
3796;BME280;1913;50.660;7.834;2023-06-24T07:22:13;154568.03;;;26.40;49.38
3796;BME280;1913;50.660;7.834;2023-06-24T07:24:39;154635.31;;;26.67;53.34
3796;BME280;1913;50.660;7.834;2023-06-24T07:27:04;154562.94;;;26.38;53.95
3796;BME280;1913;50.660;7.834;2023-06-24T07:29:30;154555.34;;;26.35;49.13
3796;BME280;1913;50.660;7.834;2023-06-24T07:31:55;154494.44;;;26.10;49.32
3796;BME280;1913;50.660;7.834;2023-06-24T07:34:21;154590.91;;;26.49;47.58
3796;BME280;1913;50.660;7.834;2023-06-24T07:36:46;154670.84;;;26.81;47.03
3796;BME280;1913;50.660;7.834;2023-06-24T07:39:12;154674.66;;;26.83;47.09
3796;BME280;1913;50.660;7.834;2023-06-24T07:41:37;154642.91;;;26.70;47.36
3796;BME280;1913;50.660;7.834;2023-06-24T07:44:02;154853.66;;;27.55;47.79
3796;BME280;1913;50.660;7.834;2023-06-24T07:46:28;154967.94;;;28.01;44.76
3796;BME280;1913;50.660;7.834;2023-06-24T07:48:55;154759.69;;;27.17;46.16
3796;BME280;1913;50.660;7.834;2023-06-24T07:51:20;154877.78;;;27.64;47.93
3796;BME280;1913;50.660;7.834;2023-06-24T07:53:45;154994.63;;;28.11;44.11
3796;BME280;1913;50.660;7.834;2023-06-24T07:56:11;154922.25;;;27.82;44.07
3796;BME280;1913;50.660;7.834;2023-06-24T07:58:36;154877.78;;;27.64;44.22
3796;BME280;1913;50.660;7.834;2023-06-24T08:01:03;154842.22;;;27.50;45.56
3796;BME280;1913;50.660;7.834;2023-06-24T08:03:29;154945.06;;;27.91;45.02
3796;BME280;1913;50.660;7.834;2023-06-24T08:05:55;155081.03;;;28.46;43.62
3796;BME280;1913;50.660;7.834;2023-06-24T08:08:22;154995.88;;;28.12;43.30
3796;BME280;1913;50.660;7.834;2023-06-24T08:10:47;155102.59;;;28.55;42.78
3796;BME280;1913;50.660;7.834;2023-06-24T08:13:13;155101.31;;;28.54;42.55
3796;BME280;1913;50.660;7.834;2023-06-24T08:15:38;155333.81;;;29.48;41.45
3796;BME280;1913;50.660;7.834;2023-06-24T08:18:04;155350.34;;;29.54;40.36
3796;BME280;1913;50.660;7.834;2023-06-24T08:20:29;155247.41;;;29.13;42.22
3796;BME280;1913;50.660;7.834;2023-06-24T08:22:55;155255.03;;;29.16;41.81
3796;BME280;1913;50.660;7.834;2023-06-24T08:25:20;155328.75;;;29.46;40.73
3796;BME280;1913;50.660;7.834;2023-06-24T08:27:46;155097.47;;;28.53;42.26
3796;BME280;1913;50.660;7.834;2023-06-24T08:30:13;154946.34;;;27.92;44.28
3796;BME280;1913;50.660;7.834;2023-06-24T08:32:39;154943.81;;;27.91;42.97
3796;BME280;1913;50.660;7.834;2023-06-24T08:35:06;155050.47;;;28.34;43.86
3796;BME280;1913;50.660;7.834;2023-06-24T08:37:32;155051.72;;;28.34;43.48
3796;BME280;1913;50.660;7.834;2023-06-24T08:40:04;154905.75;;;27.76;45.75
3796;BME280;1913;50.660;7.834;2023-06-24T08:42:30;154885.34;;;27.67;46.74
3796;BME280;1913;50.660;7.834;2023-06-24T08:44:55;154771.16;;;27.21;47.79
3796;BME280;1913;50.660;7.834;2023-06-24T08:47:25;154769.84;;;27.21;51.29
3796;BME280;1913;50.660;7.834;2023-06-24T08:49:53;154744.41;;;27.11;47.72
3796;BME280;1913;50.660;7.834;2023-06-24T08:52:25;154829.50;;;27.45;49.25
3796;BME280;1913;50.660;7.834;2023-06-24T08:54:55;154932.41;;;27.86;47.87
3796;BME280;1913;50.660;7.834;2023-06-24T08:57:21;154922.25;;;27.82;47.13
3796;BME280;1913;50.660;7.834;2023-06-24T08:59:46;155115.25;;;28.60;46.14
3796;BME280;1913;50.660;7.834;2023-06-24T09:02:11;154814.28;;;27.39;48.17
3796;BME280;1913;50.660;7.834;2023-06-24T09:04:39;154807.97;;;27.36;50.10
3796;BME280;1913;50.660;7.834;2023-06-24T09:07:05;154810.47;;;27.37;47.59
3796;BME280;1913;50.660;7.834;2023-06-24T09:09:30;154885.34;;;27.67;48.17
3796;BME280;1913;50.660;7.834;2023-06-24T09:11:58;154875.19;;;27.63;51.27
3796;BME280;1913;50.660;7.834;2023-06-24T09:14:25;154924.78;;;27.83;51.60
3796;BME280;1913;50.660;7.834;2023-06-24T09:16:58;154993.34;;;28.11;49.07
3796;BME280;1913;50.660;7.834;2023-06-24T09:19:25;155016.19;;;28.20;48.54
3796;BME280;1913;50.660;7.834;2023-06-24T09:22:03;155093.69;;;28.51;48.54
3796;BME280;1913;50.660;7.834;2023-06-24T09:24:38;154994.63;;;28.11;46.06
3796;BME280;1913;50.660;7.834;2023-06-24T09:27:04;154752.09;;;27.14;48.27
3796;BME280;1913;50.660;7.834;2023-06-24T09:29:35;154754.66;;;27.15;52.18
3796;BME280;1913;50.660;7.834;2023-06-24T09:32:04;154628.94;;;26.64;52.46
3796;BME280;1913;50.660;7.834;2023-06-24T09:34:30;154772.41;;;27.22;52.47
3796;BME280;1913;50.660;7.834;2023-06-24T09:36:57;154922.25;;;27.82;57.69
3796;BME280;1913;50.660;7.834;2023-06-24T09:39:25;154767.31;;;27.20;48.94
3796;BME280;1913;50.660;7.834;2023-06-24T09:41:57;154802.84;;;27.34;48.42
3796;BME280;1913;50.660;7.834;2023-06-24T09:44:24;154796.50;;;27.32;48.70
3796;BME280;1913;50.660;7.834;2023-06-24T09:46:50;154768.59;;;27.20;47.10
3796;BME280;1913;50.660;7.834;2023-06-24T09:49:16;154973.00;;;28.03;47.44
3796;BME280;1913;50.660;7.834;2023-06-24T09:51:49;155291.88;;;29.31;46.82
3796;BME280;1913;50.660;7.834;2023-06-24T09:54:15;155535.97;;;30.29;42.83
3796;BME280;1913;50.660;7.834;2023-06-24T09:56:50;155495.22;;;30.13;42.31
3796;BME280;1913;50.660;7.834;2023-06-24T09:59:19;155513.06;;;30.20;40.47
3796;BME280;1913;50.660;7.834;2023-06-24T10:01:46;155622.41;;;30.64;40.50
3796;BME280;1913;50.660;7.834;2023-06-24T10:04:16;155754.69;;;31.17;40.85
3796;BME280;1913;50.660;7.834;2023-06-24T10:06:42;155831.00;;;31.47;37.44
3796;BME280;1913;50.660;7.834;2023-06-24T10:09:08;155597.00;;;30.53;39.13
3796;BME280;1913;50.660;7.834;2023-06-24T10:11:33;155464.75;;;30.00;40.09
3796;BME280;1913;50.660;7.834;2023-06-24T10:13:59;155558.88;;;30.38;40.78
3796;BME280;1913;50.660;7.834;2023-06-24T10:16:25;155544.88;;;30.33;42.11
3796;BME280;1913;50.660;7.834;2023-06-24T10:18:50;155758.50;;;31.18;37.59
3796;BME280;1913;50.660;7.834;2023-06-24T10:21:16;155992.59;;;32.12;37.27
3796;BME280;1913;50.660;7.834;2023-06-24T10:26:36;155637.66;;;30.70;40.00
3796;BME280;1913;50.660;7.834;2023-06-24T10:36:55;156002.81;;;32.16;34.49
3796;BME280;1913;50.660;7.834;2023-06-24T10:47:28;155837.38;;;31.50;36.55
3796;BME280;1913;50.660;7.834;2023-06-24T10:49:54;155445.69;;;29.93;38.31
3796;BME280;1913;50.660;7.834;2023-06-24T10:52:21;155213.09;;;28.99;39.99
3796;BME280;1913;50.660;7.834;2023-06-24T10:54:47;155211.84;;;28.99;42.10
3796;BME280;1913;50.660;7.834;2023-06-24T10:57:13;155168.59;;;28.81;42.52
3796;BME280;1913;50.660;7.834;2023-06-24T10:59:43;155040.31;;;28.30;42.83
3796;BME280;1913;50.660;7.834;2023-06-24T11:02:18;155007.28;;;28.16;42.25
3796;BME280;1913;50.660;7.834;2023-06-24T11:07:09;155126.72;;;28.64;43.89
3796;BME280;1913;50.660;7.834;2023-06-24T11:09:34;155299.50;;;29.34;41.04
3796;BME280;1913;50.660;7.834;2023-06-24T11:12:02;155432.97;;;29.88;39.82
3796;BME280;1913;50.660;7.834;2023-06-24T11:14:28;155432.97;;;29.88;39.76
3796;BME280;1913;50.660;7.834;2023-06-24T11:16:53;155330.03;;;29.46;38.05
3796;BME280;1913;50.660;7.834;2023-06-24T11:19:19;155394.84;;;29.72;38.78
3796;BME280;1913;50.660;7.834;2023-06-24T11:21:44;155608.41;;;30.58;37.78
3796;BME280;1913;50.660;7.834;2023-06-24T11:24:10;155699.97;;;30.95;34.91
3796;BME280;1913;50.660;7.834;2023-06-24T11:26:36;155829.75;;;31.47;33.06
3796;BME280;1913;50.660;7.834;2023-06-24T11:29:12;156056.22;;;32.38;32.60
3796;BME280;1913;50.660;7.834;2023-06-24T11:31:37;156174.59;;;32.85;34.02
3796;BME280;1913;50.660;7.834;2023-06-24T11:34:04;156282.81;;;33.29;32.65
3796;BME280;1913;50.660;7.834;2023-06-24T11:36:29;155823.38;;;31.44;34.75
3796;BME280;1913;50.660;7.834;2023-06-24T11:38:55;155828.50;;;31.46;35.35
3796;BME280;1913;50.660;7.834;2023-06-24T11:41:21;155764.88;;;31.21;35.13
3796;BME280;1913;50.660;7.834;2023-06-24T11:43:47;155686.03;;;30.89;34.94
3796;BME280;1913;50.660;7.834;2023-06-24T11:46:24;155769.91;;;31.23;36.80
3796;BME280;1913;50.660;7.834;2023-06-24T11:48:50;155831.00;;;31.47;36.96
3796;BME280;1913;50.660;7.834;2023-06-24T11:51:16;155921.31;;;31.84;32.79
3796;BME280;1913;50.660;7.834;2023-06-24T11:53:42;156159.31;;;32.79;34.64
3796;BME280;1913;50.660;7.834;2023-06-24T11:56:14;156088.06;;;32.51;31.78
3796;BME280;1913;50.660;7.834;2023-06-24T11:58:39;156355.41;;;33.58;31.97
3796;BME280;1913;50.660;7.834;2023-06-24T12:01:08;156412.72;;;33.81;30.14
3796;BME280;1913;50.660;7.834;2023-06-24T12:03:34;156099.53;;;32.55;30.79
3796;BME280;1913;50.660;7.834;2023-06-24T12:06:00;156002.81;;;32.16;32.30
3796;BME280;1913;50.660;7.834;2023-06-24T12:08:26;156058.75;;;32.39;32.63
3796;BME280;1913;50.660;7.834;2023-06-24T12:10:51;156228.09;;;33.07;32.54
3796;BME280;1913;50.660;7.834;2023-06-24T12:13:18;155985.00;;;32.09;31.83
3796;BME280;1913;50.660;7.834;2023-06-24T12:15:43;155782.66;;;31.28;33.58
3796;BME280;1913;50.660;7.834;2023-06-24T12:18:09;155848.81;;;31.55;32.98
3796;BME280;1913;50.660;7.834;2023-06-24T12:20:35;155969.72;;;32.03;33.96
3796;BME280;1913;50.660;7.834;2023-06-24T12:23:02;156072.81;;;32.45;32.03
3796;BME280;1913;50.660;7.834;2023-06-24T12:25:28;156352.88;;;33.57;32.06
3796;BME280;1913;50.660;7.834;2023-06-24T12:27:54;156475.16;;;34.06;29.87
3796;BME280;1913;50.660;7.834;2023-06-24T12:30:19;156503.16;;;34.17;29.00
3796;BME280;1913;50.660;7.834;2023-06-24T12:32:46;156378.34;;;33.67;28.56
3796;BME280;1913;50.660;7.834;2023-06-24T12:35:12;156396.16;;;33.74;29.86
3796;BME280;1913;50.660;7.834;2023-06-24T12:37:37;156416.50;;;33.82;28.65
3796;BME280;1913;50.660;7.834;2023-06-24T12:40:04;156648.34;;;34.75;30.98
3796;BME280;1913;50.660;7.834;2023-06-24T12:42:30;156626.72;;;34.67;27.52
3796;BME280;1913;50.660;7.834;2023-06-24T12:44:55;156508.25;;;34.19;28.60
3796;BME280;1913;50.660;7.834;2023-06-24T12:47:22;156198.84;;;32.95;28.02
3796;BME280;1913;50.660;7.834;2023-06-24T12:49:48;156263.72;;;33.21;29.27
3796;BME280;1913;50.660;7.834;2023-06-24T12:52:14;156346.50;;;33.54;29.10
3796;BME280;1913;50.660;7.834;2023-06-24T12:54:40;155864.09;;;31.61;30.21
3796;BME280;1913;50.660;7.834;2023-06-24T12:57:06;156021.88;;;32.24;29.54
3796;BME280;1913;50.660;7.834;2023-06-24T12:59:31;156240.81;;;33.12;31.15
3796;BME280;1913;50.660;7.834;2023-06-24T13:01:57;156219.19;;;33.03;30.91
3796;BME280;1913;50.660;7.834;2023-06-24T13:04:23;156047.31;;;32.34;30.82
3796;BME280;1913;50.660;7.834;2023-06-24T13:06:51;155887.00;;;31.70;32.00
3796;BME280;1913;50.660;7.834;2023-06-24T13:09:16;155838.66;;;31.51;31.00
3796;BME280;1913;50.660;7.834;2023-06-24T13:11:42;156042.22;;;32.32;34.24
3796;BME280;1913;50.660;7.834;2023-06-24T13:14:08;155943.00;;;31.92;31.19
3796;BME280;1913;50.660;7.834;2023-06-24T13:16:38;155875.53;;;31.65;32.17
3796;BME280;1913;50.660;7.834;2023-06-24T13:19:04;155811.94;;;31.40;31.64
3796;BME280;1913;50.660;7.834;2023-06-24T13:21:29;155719.09;;;31.03;32.09
3796;BME280;1913;50.660;7.834;2023-06-24T13:23:55;155753.38;;;31.16;34.13
3796;BME280;1913;50.660;7.834;2023-06-24T13:26:20;155864.09;;;31.61;32.34
3796;BME280;1913;50.660;7.834;2023-06-24T13:28:46;155845.03;;;31.53;32.61
3796;BME280;1913;50.660;7.834;2023-06-24T13:31:12;156012.97;;;32.21;31.50
3796;BME280;1913;50.660;7.834;2023-06-24T13:33:37;155635.13;;;30.69;33.87
3796;BME280;1913;50.660;7.834;2023-06-24T13:36:04;155720.38;;;31.03;32.74
3796;BME280;1913;50.660;7.834;2023-06-24T13:38:32;155825.97;;;31.45;32.31